sensor_id;sensor_type;location;lat;lon;timestamp;P1;durP1;ratioP1;P2;durP2;ratioP2
14599;SDS011;7386;45.586;12.854;2023-12-28T00:00:59;136.80;;;94.23;;
14599;SDS011;7386;45.586;12.854;2023-12-28T00:03:28;140.00;;;99.00;;
14599;SDS011;7386;45.586;12.854;2023-12-28T00:05:57;139.50;;;98.63;;
14599;SDS011;7386;45.586;12.854;2023-12-28T00:08:26;144.63;;;99.57;;
14599;SDS011;7386;45.586;12.854;2023-12-28T00:10:54;143.33;;;98.67;;
14599;SDS011;7386;45.586;12.854;2023-12-28T00:13:23;142.50;;;100.53;;
14599;SDS011;7386;45.586;12.854;2023-12-28T00:15:51;141.93;;;99.30;;
14599;SDS011;7386;45.586;12.854;2023-12-28T00:18:19;146.07;;;98.90;;
14599;SDS011;7386;45.586;12.854;2023-12-28T00:20:49;142.53;;;101.23;;
14599;SDS011;7386;45.586;12.854;2023-12-28T00:23:19;153.47;;;104.97;;
14599;SDS011;7386;45.586;12.854;2023-12-28T00:25:47;147.40;;;103.10;;
14599;SDS011;7386;45.586;12.854;2023-12-28T00:28:15;149.63;;;104.57;;
14599;SDS011;7386;45.586;12.854;2023-12-28T00:30:44;151.43;;;105.93;;
14599;SDS011;7386;45.586;12.854;2023-12-28T00:33:13;154.43;;;105.73;;
14599;SDS011;7386;45.586;12.854;2023-12-28T00:35:41;153.63;;;106.17;;
14599;SDS011;7386;45.586;12.854;2023-12-28T00:38:10;150.33;;;104.33;;
14599;SDS011;7386;45.586;12.854;2023-12-28T00:40:40;149.50;;;104.83;;
14599;SDS011;7386;45.586;12.854;2023-12-28T00:43:08;160.67;;;111.67;;
14599;SDS011;7386;45.586;12.854;2023-12-28T00:45:36;153.40;;;108.07;;
14599;SDS011;7386;45.586;12.854;2023-12-28T00:48:05;153.60;;;108.20;;
14599;SDS011;7386;45.586;12.854;2023-12-28T00:50:34;168.43;;;114.70;;
14599;SDS011;7386;45.586;12.854;2023-12-28T00:53:02;165.27;;;115.10;;
14599;SDS011;7386;45.586;12.854;2023-12-28T00:55:31;166.50;;;115.97;;
14599;SDS011;7386;45.586;12.854;2023-12-28T00:58:01;174.33;;;118.23;;
14599;SDS011;7386;45.586;12.854;2023-12-28T01:00:30;170.43;;;116.90;;
14599;SDS011;7386;45.586;12.854;2023-12-28T01:02:58;162.60;;;112.17;;
14599;SDS011;7386;45.586;12.854;2023-12-28T01:05:27;170.03;;;113.73;;
14599;SDS011;7386;45.586;12.854;2023-12-28T01:07:55;160.73;;;110.70;;
14599;SDS011;7386;45.586;12.854;2023-12-28T01:10:24;155.00;;;107.00;;
14599;SDS011;7386;45.586;12.854;2023-12-28T01:12:53;152.80;;;104.17;;
14599;SDS011;7386;45.586;12.854;2023-12-28T01:15:23;151.30;;;104.37;;
14599;SDS011;7386;45.586;12.854;2023-12-28T01:17:51;145.67;;;102.63;;
14599;SDS011;7386;45.586;12.854;2023-12-28T01:20:20;144.37;;;101.53;;
14599;SDS011;7386;45.586;12.854;2023-12-28T01:22:48;148.50;;;101.80;;
14599;SDS011;7386;45.586;12.854;2023-12-28T01:25:17;145.97;;;101.70;;
14599;SDS011;7386;45.586;12.854;2023-12-28T01:27:45;142.03;;;100.63;;
14599;SDS011;7386;45.586;12.854;2023-12-28T01:30:14;139.47;;;96.83;;
14599;SDS011;7386;45.586;12.854;2023-12-28T01:32:44;147.23;;;97.93;;
14599;SDS011;7386;45.586;12.854;2023-12-28T01:35:13;143.97;;;98.97;;
14599;SDS011;7386;45.586;12.854;2023-12-28T01:37:41;131.97;;;93.20;;
14599;SDS011;7386;45.586;12.854;2023-12-28T01:40:10;131.57;;;94.00;;
14599;SDS011;7386;45.586;12.854;2023-12-28T01:42:38;135.70;;;94.30;;
14599;SDS011;7386;45.586;12.854;2023-12-28T01:45:07;138.47;;;94.03;;
14599;SDS011;7386;45.586;12.854;2023-12-28T01:47:35;132.93;;;94.13;;
14599;SDS011;7386;45.586;12.854;2023-12-28T01:50:07;139.90;;;95.97;;
14599;SDS011;7386;45.586;12.854;2023-12-28T01:52:35;134.10;;;92.43;;
14599;SDS011;7386;45.586;12.854;2023-12-28T01:55:04;139.20;;;94.17;;
14599;SDS011;7386;45.586;12.854;2023-12-28T01:57:33;138.20;;;93.70;;
14599;SDS011;7386;45.586;12.854;2023-12-28T02:00:02;136.47;;;92.97;;
14599;SDS011;7386;45.586;12.854;2023-12-28T02:02:31;142.20;;;96.13;;
14599;SDS011;7386;45.586;12.854;2023-12-28T02:05:00;140.03;;;95.30;;
14599;SDS011;7386;45.586;12.854;2023-12-28T02:07:30;136.17;;;96.03;;
14599;SDS011;7386;45.586;12.854;2023-12-28T02:10:00;139.23;;;96.20;;
14599;SDS011;7386;45.586;12.854;2023-12-28T02:12:29;140.40;;;97.67;;
14599;SDS011;7386;45.586;12.854;2023-12-28T02:14:57;147.67;;;100.20;;
14599;SDS011;7386;45.586;12.854;2023-12-28T02:17:28;141.73;;;98.40;;
14599;SDS011;7386;45.586;12.854;2023-12-28T02:19:57;148.10;;;99.17;;
14599;SDS011;7386;45.586;12.854;2023-12-28T02:22:26;142.07;;;98.87;;
14599;SDS011;7386;45.586;12.854;2023-12-28T02:25:03;145.40;;;100.23;;
14599;SDS011;7386;45.586;12.854;2023-12-28T02:27:32;142.43;;;98.60;;
14599;SDS011;7386;45.586;12.854;2023-12-28T02:30:01;152.70;;;104.47;;
14599;SDS011;7386;45.586;12.854;2023-12-28T02:32:33;149.90;;;105.40;;
14599;SDS011;7386;45.586;12.854;2023-12-28T02:35:04;149.93;;;100.63;;
14599;SDS011;7386;45.586;12.854;2023-12-28T02:37:34;145.80;;;101.87;;
14599;SDS011;7386;45.586;12.854;2023-12-28T02:40:05;143.30;;;99.30;;
14599;SDS011;7386;45.586;12.854;2023-12-28T02:42:34;151.10;;;105.07;;
14599;SDS011;7386;45.586;12.854;2023-12-28T02:45:03;147.00;;;103.50;;
14599;SDS011;7386;45.586;12.854;2023-12-28T02:47:32;141.17;;;101.20;;
14599;SDS011;7386;45.586;12.854;2023-12-28T02:50:00;147.13;;;101.97;;
14599;SDS011;7386;45.586;12.854;2023-12-28T02:52:29;150.23;;;102.57;;
14599;SDS011;7386;45.586;12.854;2023-12-28T02:54:57;152.00;;;106.90;;
14599;SDS011;7386;45.586;12.854;2023-12-28T02:57:27;155.30;;;105.53;;
14599;SDS011;7386;45.586;12.854;2023-12-28T02:59:55;161.90;;;110.13;;
14599;SDS011;7386;45.586;12.854;2023-12-28T03:02:27;164.43;;;110.53;;
14599;SDS011;7386;45.586;12.854;2023-12-28T03:04:56;171.83;;;115.23;;
14599;SDS011;7386;45.586;12.854;2023-12-28T03:07:25;176.37;;;118.67;;
14599;SDS011;7386;45.586;12.854;2023-12-28T03:09:53;181.87;;;123.67;;
14599;SDS011;7386;45.586;12.854;2023-12-28T03:12:21;176.47;;;120.80;;
14599;SDS011;7386;45.586;12.854;2023-12-28T03:14:51;181.87;;;122.43;;
14599;SDS011;7386;45.586;12.854;2023-12-28T03:17:20;178.03;;;122.13;;
14599;SDS011;7386;45.586;12.854;2023-12-28T03:19:48;181.03;;;121.73;;
14599;SDS011;7386;45.586;12.854;2023-12-28T03:22:17;184.53;;;122.97;;
14599;SDS011;7386;45.586;12.854;2023-12-28T03:24:46;182.07;;;121.83;;
14599;SDS011;7386;45.586;12.854;2023-12-28T03:27:14;176.60;;;121.60;;
14599;SDS011;7386;45.586;12.854;2023-12-28T03:29:43;181.30;;;125.37;;
14599;SDS011;7386;45.586;12.854;2023-12-28T03:32:13;183.87;;;124.67;;
14599;SDS011;7386;45.586;12.854;2023-12-28T03:34:42;177.67;;;122.80;;
14599;SDS011;7386;45.586;12.854;2023-12-28T03:37:10;178.63;;;124.23;;
14599;SDS011;7386;45.586;12.854;2023-12-28T03:39:39;181.07;;;123.70;;
14599;SDS011;7386;45.586;12.854;2023-12-28T03:42:07;181.50;;;122.40;;
14599;SDS011;7386;45.586;12.854;2023-12-28T03:44:36;182.73;;;124.43;;
14599;SDS011;7386;45.586;12.854;2023-12-28T03:47:04;189.83;;;126.60;;
14599;SDS011;7386;45.586;12.854;2023-12-28T03:49:34;184.53;;;126.47;;
14599;SDS011;7386;45.586;12.854;2023-12-28T03:52:03;185.27;;;125.83;;
14599;SDS011;7386;45.586;12.854;2023-12-28T03:54:31;179.73;;;124.33;;
14599;SDS011;7386;45.586;12.854;2023-12-28T03:57:00;186.17;;;127.33;;
14599;SDS011;7386;45.586;12.854;2023-12-28T03:59:28;190.97;;;126.60;;
14599;SDS011;7386;45.586;12.854;2023-12-28T04:01:56;186.77;;;128.30;;
14599;SDS011;7386;45.586;12.854;2023-12-28T04:04:25;195.17;;;130.27;;
14599;SDS011;7386;45.586;12.854;2023-12-28T04:06:55;189.70;;;129.20;;
14599;SDS011;7386;45.586;12.854;2023-12-28T04:09:23;195.07;;;130.43;;
14599;SDS011;7386;45.586;12.854;2023-12-28T04:11:52;184.13;;;127.37;;
14599;SDS011;7386;45.586;12.854;2023-12-28T04:14:20;182.60;;;125.60;;
14599;SDS011;7386;45.586;12.854;2023-12-28T04:16:49;186.90;;;124.97;;
14599;SDS011;7386;45.586;12.854;2023-12-28T04:19:17;189.93;;;126.87;;
14599;SDS011;7386;45.586;12.854;2023-12-28T04:21:46;189.07;;;126.67;;
14599;SDS011;7386;45.586;12.854;2023-12-28T04:24:16;189.43;;;126.27;;
14599;SDS011;7386;45.586;12.854;2023-12-28T04:26:45;188.13;;;125.40;;
14599;SDS011;7386;45.586;12.854;2023-12-28T04:29:13;181.20;;;126.47;;
14599;SDS011;7386;45.586;12.854;2023-12-28T04:31:42;180.37;;;124.17;;
14599;SDS011;7386;45.586;12.854;2023-12-28T04:34:10;178.23;;;123.47;;
14599;SDS011;7386;45.586;12.854;2023-12-28T04:36:39;180.43;;;123.27;;
14599;SDS011;7386;45.586;12.854;2023-12-28T04:39:09;178.20;;;122.93;;
14599;SDS011;7386;45.586;12.854;2023-12-28T04:41:38;171.13;;;122.80;;
14599;SDS011;7386;45.586;12.854;2023-12-28T04:44:07;177.30;;;121.27;;
14599;SDS011;7386;45.586;12.854;2023-12-28T04:46:37;174.97;;;121.90;;
14599;SDS011;7386;45.586;12.854;2023-12-28T04:49:07;178.73;;;123.50;;
14599;SDS011;7386;45.586;12.854;2023-12-28T04:51:36;181.73;;;122.43;;
14599;SDS011;7386;45.586;12.854;2023-12-28T04:54:04;182.23;;;123.27;;
14599;SDS011;7386;45.586;12.854;2023-12-28T04:56:33;187.73;;;121.17;;
14599;SDS011;7386;45.586;12.854;2023-12-28T04:59:02;175.30;;;122.07;;
14599;SDS011;7386;45.586;12.854;2023-12-28T05:01:31;179.57;;;122.50;;
14599;SDS011;7386;45.586;12.854;2023-12-28T05:04:00;183.57;;;121.37;;
14599;SDS011;7386;45.586;12.854;2023-12-28T05:06:28;173.57;;;122.77;;
14599;SDS011;7386;45.586;12.854;2023-12-28T05:08:57;170.37;;;121.23;;
14599;SDS011;7386;45.586;12.854;2023-12-28T05:11:25;173.77;;;120.53;;
14599;SDS011;7386;45.586;12.854;2023-12-28T05:13:54;179.90;;;122.83;;
14599;SDS011;7386;45.586;12.854;2023-12-28T05:16:24;177.90;;;122.23;;
14599;SDS011;7386;45.586;12.854;2023-12-28T05:18:52;178.97;;;120.73;;
14599;SDS011;7386;45.586;12.854;2023-12-28T05:21:21;177.77;;;121.30;;
14599;SDS011;7386;45.586;12.854;2023-12-28T05:23:49;174.03;;;120.10;;
14599;SDS011;7386;45.586;12.854;2023-12-28T05:26:18;176.73;;;119.77;;
14599;SDS011;7386;45.586;12.854;2023-12-28T05:28:46;178.33;;;119.83;;
14599;SDS011;7386;45.586;12.854;2023-12-28T05:31:15;181.77;;;121.20;;
14599;SDS011;7386;45.586;12.854;2023-12-28T05:33:45;177.70;;;122.53;;
14599;SDS011;7386;45.586;12.854;2023-12-28T05:36:13;177.90;;;122.40;;
14599;SDS011;7386;45.586;12.854;2023-12-28T05:38:42;173.53;;;120.30;;
14599;SDS011;7386;45.586;12.854;2023-12-28T05:41:10;176.70;;;121.23;;
14599;SDS011;7386;45.586;12.854;2023-12-28T05:43:39;185.57;;;122.93;;
14599;SDS011;7386;45.586;12.854;2023-12-28T05:46:07;176.30;;;123.57;;
14599;SDS011;7386;45.586;12.854;2023-12-28T05:48:36;178.03;;;124.03;;
14599;SDS011;7386;45.586;12.854;2023-12-28T05:51:06;192.80;;;125.10;;
14599;SDS011;7386;45.586;12.854;2023-12-28T05:53:34;180.90;;;122.47;;
14599;SDS011;7386;45.586;12.854;2023-12-28T05:56:03;179.07;;;123.50;;
14599;SDS011;7386;45.586;12.854;2023-12-28T05:58:32;183.70;;;125.60;;
14599;SDS011;7386;45.586;12.854;2023-12-28T06:01:00;176.77;;;123.20;;
14599;SDS011;7386;45.586;12.854;2023-12-28T06:03:31;184.40;;;125.07;;
14599;SDS011;7386;45.586;12.854;2023-12-28T06:06:00;177.73;;;122.30;;
14599;SDS011;7386;45.586;12.854;2023-12-28T06:08:29;182.30;;;123.07;;
14599;SDS011;7386;45.586;12.854;2023-12-28T06:10:58;182.80;;;124.23;;
14599;SDS011;7386;45.586;12.854;2023-12-28T06:13:26;182.43;;;124.13;;
14599;SDS011;7386;45.586;12.854;2023-12-28T06:15:55;184.87;;;124.30;;
14599;SDS011;7386;45.586;12.854;2023-12-28T06:18:23;179.00;;;124.47;;
14599;SDS011;7386;45.586;12.854;2023-12-28T06:20:52;188.47;;;124.83;;
14599;SDS011;7386;45.586;12.854;2023-12-28T06:23:20;182.53;;;124.30;;
14599;SDS011;7386;45.586;12.854;2023-12-28T06:25:50;177.93;;;122.57;;
14599;SDS011;7386;45.586;12.854;2023-12-28T06:28:18;176.27;;;122.27;;
14599;SDS011;7386;45.586;12.854;2023-12-28T06:30:47;177.03;;;123.00;;
14599;SDS011;7386;45.586;12.854;2023-12-28T06:33:15;182.13;;;122.37;;
14599;SDS011;7386;45.586;12.854;2023-12-28T06:35:44;191.87;;;127.43;;
14599;SDS011;7386;45.586;12.854;2023-12-28T06:38:12;185.53;;;126.17;;
14599;SDS011;7386;45.586;12.854;2023-12-28T06:40:41;185.90;;;125.00;;
14599;SDS011;7386;45.586;12.854;2023-12-28T06:43:11;185.80;;;124.97;;
14599;SDS011;7386;45.586;12.854;2023-12-28T06:45:39;183.00;;;126.50;;
14599;SDS011;7386;45.586;12.854;2023-12-28T06:48:07;180.00;;;121.97;;
14599;SDS011;7386;45.586;12.854;2023-12-28T06:50:36;178.67;;;124.23;;
14599;SDS011;7386;45.586;12.854;2023-12-28T06:53:05;180.20;;;122.93;;
14599;SDS011;7386;45.586;12.854;2023-12-28T06:55:33;184.43;;;124.27;;
14599;SDS011;7386;45.586;12.854;2023-12-28T06:58:01;181.40;;;123.13;;
14599;SDS011;7386;45.586;12.854;2023-12-28T07:00:31;189.90;;;125.27;;
14599;SDS011;7386;45.586;12.854;2023-12-28T07:03:00;183.07;;;123.20;;
14599;SDS011;7386;45.586;12.854;2023-12-28T07:05:28;185.30;;;124.50;;
14599;SDS011;7386;45.586;12.854;2023-12-28T07:07:57;177.27;;;123.13;;
14599;SDS011;7386;45.586;12.854;2023-12-28T07:10:26;181.97;;;123.10;;
14599;SDS011;7386;45.586;12.854;2023-12-28T07:12:54;188.80;;;124.50;;
14599;SDS011;7386;45.586;12.854;2023-12-28T07:15:23;192.33;;;125.17;;
14599;SDS011;7386;45.586;12.854;2023-12-28T07:17:53;198.67;;;129.23;;
14599;SDS011;7386;45.586;12.854;2023-12-28T07:20:21;202.30;;;129.40;;
14599;SDS011;7386;45.586;12.854;2023-12-28T07:22:50;205.43;;;132.70;;
14599;SDS011;7386;45.586;12.854;2023-12-28T07:25:20;191.83;;;128.10;;
14599;SDS011;7386;45.586;12.854;2023-12-28T07:27:48;203.77;;;132.27;;
14599;SDS011;7386;45.586;12.854;2023-12-28T07:30:17;201.50;;;130.30;;
14599;SDS011;7386;45.586;12.854;2023-12-28T07:32:46;198.67;;;127.80;;
14599;SDS011;7386;45.586;12.854;2023-12-28T07:35:16;194.93;;;128.33;;
14599;SDS011;7386;45.586;12.854;2023-12-28T07:37:44;193.50;;;124.70;;
14599;SDS011;7386;45.586;12.854;2023-12-28T07:40:13;196.03;;;125.33;;
14599;SDS011;7386;45.586;12.854;2023-12-28T07:42:41;194.60;;;123.57;;
14599;SDS011;7386;45.586;12.854;2023-12-28T07:45:10;185.87;;;120.33;;
14599;SDS011;7386;45.586;12.854;2023-12-28T07:47:38;193.07;;;121.07;;
14599;SDS011;7386;45.586;12.854;2023-12-28T07:50:07;177.97;;;118.37;;
14599;SDS011;7386;45.586;12.854;2023-12-28T07:52:38;190.87;;;121.07;;
14599;SDS011;7386;45.586;12.854;2023-12-28T07:55:07;187.07;;;121.07;;
14599;SDS011;7386;45.586;12.854;2023-12-28T07:57:35;186.00;;;119.00;;
14599;SDS011;7386;45.586;12.854;2023-12-28T08:00:04;187.27;;;121.47;;
14599;SDS011;7386;45.586;12.854;2023-12-28T08:02:33;178.23;;;115.53;;
14599;SDS011;7386;45.586;12.854;2023-12-28T08:05:02;182.27;;;118.27;;
14599;SDS011;7386;45.586;12.854;2023-12-28T08:07:30;174.37;;;117.67;;
14599;SDS011;7386;45.586;12.854;2023-12-28T08:10:00;168.90;;;115.03;;
14599;SDS011;7386;45.586;12.854;2023-12-28T08:12:30;168.33;;;112.53;;
14599;SDS011;7386;45.586;12.854;2023-12-28T08:14:59;167.90;;;110.70;;
14599;SDS011;7386;45.586;12.854;2023-12-28T08:17:27;159.97;;;108.43;;
14599;SDS011;7386;45.586;12.854;2023-12-28T08:19:56;152.17;;;104.10;;
14599;SDS011;7386;45.586;12.854;2023-12-28T08:22:25;146.83;;;100.23;;
14599;SDS011;7386;45.586;12.854;2023-12-28T08:24:54;133.77;;;91.43;;
14599;SDS011;7386;45.586;12.854;2023-12-28T08:27:25;129.07;;;88.83;;
14599;SDS011;7386;45.586;12.854;2023-12-28T08:29:53;127.60;;;86.33;;
14599;SDS011;7386;45.586;12.854;2023-12-28T08:32:22;120.23;;;82.43;;
14599;SDS011;7386;45.586;12.854;2023-12-28T08:34:50;121.40;;;84.40;;
14599;SDS011;7386;45.586;12.854;2023-12-28T08:37:20;120.23;;;83.40;;
14599;SDS011;7386;45.586;12.854;2023-12-28T08:39:48;119.30;;;82.53;;
14599;SDS011;7386;45.586;12.854;2023-12-28T08:42:17;122.20;;;81.93;;
14599;SDS011;7386;45.586;12.854;2023-12-28T08:44:46;112.80;;;77.97;;
14599;SDS011;7386;45.586;12.854;2023-12-28T08:47:15;109.30;;;76.77;;
14599;SDS011;7386;45.586;12.854;2023-12-28T08:49:44;100.60;;;67.33;;
14599;SDS011;7386;45.586;12.854;2023-12-28T08:52:12;88.73;;;61.10;;
14599;SDS011;7386;45.586;12.854;2023-12-28T08:54:41;79.53;;;55.00;;
14599;SDS011;7386;45.586;12.854;2023-12-28T08:57:09;81.00;;;55.93;;
14599;SDS011;7386;45.586;12.854;2023-12-28T08:59:38;78.87;;;56.13;;
14599;SDS011;7386;45.586;12.854;2023-12-28T09:02:07;80.57;;;56.67;;
14599;SDS011;7386;45.586;12.854;2023-12-28T09:04:36;85.17;;;60.23;;
14599;SDS011;7386;45.586;12.854;2023-12-28T09:07:05;72.93;;;52.30;;
14599;SDS011;7386;45.586;12.854;2023-12-28T09:09:33;96.30;;;67.90;;
14599;SDS011;7386;45.586;12.854;2023-12-28T09:12:02;107.10;;;75.50;;
14599;SDS011;7386;45.586;12.854;2023-12-28T09:14:30;117.17;;;80.40;;
14599;SDS011;7386;45.586;12.854;2023-12-28T09:16:59;125.33;;;85.40;;
14599;SDS011;7386;45.586;12.854;2023-12-28T09:19:28;120.50;;;84.50;;
14599;SDS011;7386;45.586;12.854;2023-12-28T09:21:57;125.63;;;88.40;;
14599;SDS011;7386;45.586;12.854;2023-12-28T09:24:26;124.13;;;86.23;;
14599;SDS011;7386;45.586;12.854;2023-12-28T09:26:54;120.73;;;85.30;;
14599;SDS011;7386;45.586;12.854;2023-12-28T09:29:22;123.00;;;85.47;;
14599;SDS011;7386;45.586;12.854;2023-12-28T09:31:51;103.90;;;74.27;;
14599;SDS011;7386;45.586;12.854;2023-12-28T09:34:20;94.77;;;68.67;;
14599;SDS011;7386;45.586;12.854;2023-12-28T09:36:50;99.53;;;72.23;;
14599;SDS011;7386;45.586;12.854;2023-12-28T09:39:18;110.50;;;78.10;;
14599;SDS011;7386;45.586;12.854;2023-12-28T09:41:47;111.30;;;78.20;;
14599;SDS011;7386;45.586;12.854;2023-12-28T09:44:17;113.40;;;82.53;;
14599;SDS011;7386;45.586;12.854;2023-12-28T09:46:46;98.83;;;69.53;;
14599;SDS011;7386;45.586;12.854;2023-12-28T09:49:14;92.40;;;65.53;;
14599;SDS011;7386;45.586;12.854;2023-12-28T09:51:43;106.10;;;70.93;;
14599;SDS011;7386;45.586;12.854;2023-12-28T09:54:15;102.90;;;73.13;;
14599;SDS011;7386;45.586;12.854;2023-12-28T09:56:44;108.10;;;76.13;;
14599;SDS011;7386;45.586;12.854;2023-12-28T09:59:13;109.57;;;78.90;;
14599;SDS011;7386;45.586;12.854;2023-12-28T10:01:43;108.20;;;78.50;;
14599;SDS011;7386;45.586;12.854;2023-12-28T10:04:14;117.17;;;81.17;;
14599;SDS011;7386;45.586;12.854;2023-12-28T10:06:43;90.23;;;65.83;;
14599;SDS011;7386;45.586;12.854;2023-12-28T10:09:11;96.33;;;67.00;;
14599;SDS011;7386;45.586;12.854;2023-12-28T10:11:41;95.07;;;68.43;;
14599;SDS011;7386;45.586;12.854;2023-12-28T10:14:10;100.43;;;72.13;;
14599;SDS011;7386;45.586;12.854;2023-12-28T10:16:40;102.30;;;73.37;;
14599;SDS011;7386;45.586;12.854;2023-12-28T10:19:08;98.67;;;71.53;;
14599;SDS011;7386;45.586;12.854;2023-12-28T10:21:38;106.23;;;76.13;;
14599;SDS011;7386;45.586;12.854;2023-12-28T10:24:07;108.93;;;75.60;;
14599;SDS011;7386;45.586;12.854;2023-12-28T10:26:38;87.23;;;61.63;;
14599;SDS011;7386;45.586;12.854;2023-12-28T10:29:08;78.13;;;57.87;;
14599;SDS011;7386;45.586;12.854;2023-12-28T10:31:37;85.60;;;62.17;;
14599;SDS011;7386;45.586;12.854;2023-12-28T10:34:06;93.70;;;70.57;;
14599;SDS011;7386;45.586;12.854;2023-12-28T10:36:36;93.73;;;68.40;;
14599;SDS011;7386;45.586;12.854;2023-12-28T10:39:06;98.00;;;70.80;;
14599;SDS011;7386;45.586;12.854;2023-12-28T10:41:36;75.97;;;56.67;;
14599;SDS011;7386;45.586;12.854;2023-12-28T10:44:05;72.10;;;53.03;;
14599;SDS011;7386;45.586;12.854;2023-12-28T10:46:38;79.37;;;59.47;;
14599;SDS011;7386;45.586;12.854;2023-12-28T10:49:09;88.97;;;63.40;;
14599;SDS011;7386;45.586;12.854;2023-12-28T10:51:40;93.70;;;67.20;;
14599;SDS011;7386;45.586;12.854;2023-12-28T10:54:13;98.57;;;69.77;;
14599;SDS011;7386;45.586;12.854;2023-12-28T10:56:44;102.57;;;74.87;;
14599;SDS011;7386;45.586;12.854;2023-12-28T10:59:17;80.27;;;58.27;;
14599;SDS011;7386;45.586;12.854;2023-12-28T11:01:51;76.80;;;54.20;;
14599;SDS011;7386;45.586;12.854;2023-12-28T11:04:22;81.63;;;59.80;;
14599;SDS011;7386;45.586;12.854;2023-12-28T11:06:51;88.77;;;63.13;;
14599;SDS011;7386;45.586;12.854;2023-12-28T11:09:20;93.07;;;67.00;;
14599;SDS011;7386;45.586;12.854;2023-12-28T11:11:50;96.67;;;69.57;;
14599;SDS011;7386;45.586;12.854;2023-12-28T11:14:19;92.87;;;70.03;;
14599;SDS011;7386;45.586;12.854;2023-12-28T11:16:49;90.00;;;70.37;;
14599;SDS011;7386;45.586;12.854;2023-12-28T11:19:19;72.43;;;56.37;;
14599;SDS011;7386;45.586;12.854;2023-12-28T11:21:48;67.53;;;51.87;;
14599;SDS011;7386;45.586;12.854;2023-12-28T11:24:17;79.97;;;59.57;;
14599;SDS011;7386;45.586;12.854;2023-12-28T11:26:51;82.27;;;62.63;;
14599;SDS011;7386;45.586;12.854;2023-12-28T11:29:21;90.87;;;66.10;;
14599;SDS011;7386;45.586;12.854;2023-12-28T11:31:54;98.20;;;71.23;;
14599;SDS011;7386;45.586;12.854;2023-12-28T11:34:24;96.40;;;70.40;;
14599;SDS011;7386;45.586;12.854;2023-12-28T11:36:54;72.40;;;53.47;;
14599;SDS011;7386;45.586;12.854;2023-12-28T11:39:28;70.80;;;53.07;;
14599;SDS011;7386;45.586;12.854;2023-12-28T11:42:00;82.13;;;59.10;;
14599;SDS011;7386;45.586;12.854;2023-12-28T11:44:30;88.83;;;64.73;;
14599;SDS011;7386;45.586;12.854;2023-12-28T11:47:00;91.97;;;69.27;;
14599;SDS011;7386;45.586;12.854;2023-12-28T11:49:38;99.20;;;72.07;;
14599;SDS011;7386;45.586;12.854;2023-12-28T11:52:08;98.80;;;71.43;;
14599;SDS011;7386;45.586;12.854;2023-12-28T11:54:37;65.63;;;50.43;;
14599;SDS011;7386;45.586;12.854;2023-12-28T11:57:06;79.33;;;55.90;;
14599;SDS011;7386;45.586;12.854;2023-12-28T11:59:34;83.73;;;62.00;;
14599;SDS011;7386;45.586;12.854;2023-12-28T12:02:06;91.93;;;67.43;;
14599;SDS011;7386;45.586;12.854;2023-12-28T12:04:34;99.33;;;70.20;;
14599;SDS011;7386;45.586;12.854;2023-12-28T12:07:03;107.87;;;75.27;;
14599;SDS011;7386;45.586;12.854;2023-12-28T12:09:32;74.90;;;56.33;;
14599;SDS011;7386;45.586;12.854;2023-12-28T12:12:01;71.17;;;50.63;;
14599;SDS011;7386;45.586;12.854;2023-12-28T12:14:30;79.63;;;59.83;;
14599;SDS011;7386;45.586;12.854;2023-12-28T12:16:58;90.17;;;66.53;;
14599;SDS011;7386;45.586;12.854;2023-12-28T12:19:28;99.67;;;71.73;;
14599;SDS011;7386;45.586;12.854;2023-12-28T12:21:57;99.33;;;73.13;;
14599;SDS011;7386;45.586;12.854;2023-12-28T12:24:26;106.90;;;74.53;;
14599;SDS011;7386;45.586;12.854;2023-12-28T12:26:54;67.43;;;51.23;;
14599;SDS011;7386;45.586;12.854;2023-12-28T12:29:23;78.47;;;56.37;;
14599;SDS011;7386;45.586;12.854;2023-12-28T12:31:55;91.37;;;66.93;;
14599;SDS011;7386;45.586;12.854;2023-12-28T12:34:24;99.83;;;71.90;;
14599;SDS011;7386;45.586;12.854;2023-12-28T12:36:54;112.23;;;75.20;;
14599;SDS011;7386;45.586;12.854;2023-12-28T12:39:24;115.20;;;80.07;;
14599;SDS011;7386;45.586;12.854;2023-12-28T12:41:53;83.83;;;56.50;;
14599;SDS011;7386;45.586;12.854;2023-12-28T12:44:23;83.43;;;59.90;;
14599;SDS011;7386;45.586;12.854;2023-12-28T12:46:58;91.50;;;65.97;;
14599;SDS011;7386;45.586;12.854;2023-12-28T12:49:26;100.37;;;70.03;;
14599;SDS011;7386;45.586;12.854;2023-12-28T12:51:56;102.47;;;74.00;;
14599;SDS011;7386;45.586;12.854;2023-12-28T12:54:30;110.47;;;75.60;;
14599;SDS011;7386;45.586;12.854;2023-12-28T12:56:58;80.17;;;53.80;;
14599;SDS011;7386;45.586;12.854;2023-12-28T12:59:27;77.67;;;52.63;;
14599;SDS011;7386;45.586;12.854;2023-12-28T13:01:56;94.67;;;66.73;;
14599;SDS011;7386;45.586;12.854;2023-12-28T13:04:24;104.13;;;72.57;;
14599;SDS011;7386;45.586;12.854;2023-12-28T13:06:54;117.50;;;79.70;;
14599;SDS011;7386;45.586;12.854;2023-12-28T13:09:24;117.13;;;83.07;;
14599;SDS011;7386;45.586;12.854;2023-12-28T13:11:53;91.63;;;61.10;;
14599;SDS011;7386;45.586;12.854;2023-12-28T13:14:21;68.23;;;48.03;;
14599;SDS011;7386;45.586;12.854;2023-12-28T13:16:49;89.40;;;62.83;;
14599;SDS011;7386;45.586;12.854;2023-12-28T13:19:24;100.10;;;69.27;;
14599;SDS011;7386;45.586;12.854;2023-12-28T13:21:52;103.10;;;73.30;;
14599;SDS011;7386;45.586;12.854;2023-12-28T13:24:21;112.20;;;78.17;;
14599;SDS011;7386;45.586;12.854;2023-12-28T13:26:51;88.40;;;60.43;;
14599;SDS011;7386;45.586;12.854;2023-12-28T13:29:19;66.33;;;46.87;;
14599;SDS011;7386;45.586;12.854;2023-12-28T13:31:47;85.67;;;59.87;;
14599;SDS011;7386;45.586;12.854;2023-12-28T13:34:16;86.90;;;64.37;;
14599;SDS011;7386;45.586;12.854;2023-12-28T13:36:45;98.43;;;71.73;;
14599;SDS011;7386;45.586;12.854;2023-12-28T13:39:14;105.00;;;76.57;;
14599;SDS011;7386;45.586;12.854;2023-12-28T13:41:44;80.03;;;58.13;;
14599;SDS011;7386;45.586;12.854;2023-12-28T13:44:13;76.00;;;55.63;;
14599;SDS011;7386;45.586;12.854;2023-12-28T13:46:43;90.50;;;67.43;;
14599;SDS011;7386;45.586;12.854;2023-12-28T13:49:12;100.77;;;74.63;;
14599;SDS011;7386;45.586;12.854;2023-12-28T13:51:40;80.60;;;59.03;;
14599;SDS011;7386;45.586;12.854;2023-12-28T13:54:09;87.33;;;61.57;;
14599;SDS011;7386;45.586;12.854;2023-12-28T13:56:37;94.33;;;69.97;;
14599;SDS011;7386;45.586;12.854;2023-12-28T13:59:06;102.43;;;76.53;;
14599;SDS011;7386;45.586;12.854;2023-12-28T14:01:36;75.57;;;56.87;;
14599;SDS011;7386;45.586;12.854;2023-12-28T14:04:05;91.30;;;67.40;;
14599;SDS011;7386;45.586;12.854;2023-12-28T14:06:33;100.53;;;73.33;;
14599;SDS011;7386;45.586;12.854;2023-12-28T14:09:02;82.70;;;63.00;;
14599;SDS011;7386;45.586;12.854;2023-12-28T14:11:30;87.27;;;62.53;;
14599;SDS011;7386;45.586;12.854;2023-12-28T14:13:59;96.13;;;70.80;;
14599;SDS011;7386;45.586;12.854;2023-12-28T14:16:27;108.37;;;78.23;;